createdAt,value
2019-03-30T00:00:48.820Z,42.74
2019-03-30T00:01:49.290Z,42.71
2019-03-30T00:02:49.768Z,42.77
2019-03-30T00:03:50.234Z,42.75
2019-03-30T00:04:50.707Z,42.77
2019-03-30T00:05:51.179Z,42.74
2019-03-30T00:06:51.650Z,42.73
2019-03-30T00:07:52.120Z,42.75
2019-03-30T00:08:52.644Z,42.79
2019-03-30T00:09:53.064Z,42.77
2019-03-30T00:10:53.538Z,42.80
2019-03-30T00:11:54.009Z,42.79
2019-03-30T00:12:54.481Z,42.80
2019-03-30T00:13:55.054Z,42.74
2019-03-30T00:14:55.424Z,42.80
2019-03-30T00:15:55.898Z,42.78
2019-03-30T00:16:56.371Z,42.78
2019-03-30T00:17:56.846Z,42.78
2019-03-30T00:18:57.313Z,42.79
2019-03-30T00:19:57.788Z,42.76
2019-03-30T00:20:58.256Z,42.76
2019-03-30T00:21:58.727Z,42.77
2019-03-30T00:22:59.199Z,42.78
2019-03-30T00:23:59.670Z,42.81
2019-03-30T00:25:00.266Z,42.80
2019-03-30T00:26:00.617Z,42.83
2019-03-30T00:27:01.092Z,42.84
2019-03-30T00:28:01.561Z,42.85
2019-03-30T00:29:02.031Z,42.85
2019-03-30T00:30:02.504Z,42.81
2019-03-30T00:31:02.982Z,42.81
2019-03-30T00:32:03.453Z,42.82
2019-03-30T00:33:03.925Z,42.81
2019-03-30T00:34:04.393Z,42.85
2019-03-30T00:35:04.938Z,42.85
2019-03-30T00:36:05.335Z,42.83
2019-03-30T00:37:05.819Z,42.82
2019-03-30T00:38:06.281Z,42.84
2019-03-30T00:39:06.758Z,42.84
2019-03-30T00:40:07.232Z,42.82
2019-03-30T00:41:07.697Z,42.80
2019-03-30T00:42:08.169Z,42.80
2019-03-30T00:43:08.642Z,42.81
2019-03-30T00:44:09.113Z,42.82
2019-03-30T00:45:09.586Z,42.81
2019-03-30T00:46:10.057Z,42.81
2019-03-30T00:47:10.530Z,42.80
2019-03-30T00:48:11.003Z,42.81
2019-03-30T00:49:11.675Z,42.83
2019-03-30T00:50:11.945Z,42.86
2019-03-30T00:51:12.421Z,42.79
2019-03-30T00:52:12.889Z,42.83
2019-03-30T00:53:13.362Z,42.80
2019-03-30T00:54:14.036Z,42.84
2019-03-30T00:55:14.308Z,42.83
2019-03-30T00:56:14.778Z,42.82
2019-03-30T00:57:15.251Z,42.81
2019-03-30T00:58:15.723Z,42.80
2019-03-30T00:59:16.198Z,42.81
2019-03-30T01:00:16.671Z,42.86
2019-03-30T01:01:17.139Z,42.89
2019-03-30T01:02:17.614Z,43.03
2019-03-30T01:03:18.086Z,43.17
2019-03-30T01:04:18.557Z,43.23
2019-03-30T01:05:19.026Z,43.29
2019-03-30T01:06:19.500Z,43.39
2019-03-30T01:07:19.972Z,43.43
2019-03-30T01:08:20.443Z,43.53
2019-03-30T01:09:20.918Z,43.60
2019-03-30T01:10:21.387Z,43.69
2019-03-30T01:11:21.861Z,43.81
2019-03-30T01:12:22.329Z,43.93
2019-03-30T01:13:22.802Z,44.01
2019-03-30T01:14:23.270Z,44.12
2019-03-30T01:15:23.741Z,44.21
2019-03-30T01:16:24.211Z,44.30
2019-03-30T01:17:24.681Z,44.40
2019-03-30T01:18:25.151Z,44.48
2019-03-30T01:19:25.619Z,44.54
2019-03-30T01:20:26.088Z,44.60
2019-03-30T01:21:26.557Z,44.64
2019-03-30T01:22:27.028Z,44.64
2019-03-30T01:23:27.536Z,44.68
2019-03-30T01:24:28.014Z,44.75
2019-03-30T01:25:28.431Z,44.77
2019-03-30T01:26:28.898Z,44.78
2019-03-30T01:27:29.367Z,44.77
2019-03-30T01:28:29.856Z,44.73
2019-03-30T01:30:30.774Z,44.62
2019-03-30T01:31:31.242Z,44.50
2019-03-30T01:32:34.828Z,44.33
2019-03-30T01:33:32.176Z,44.18
2019-03-30T01:34:32.642Z,44.07
2019-03-30T01:35:33.111Z,43.91
2019-03-30T01:36:33.634Z,43.81
2019-03-30T01:37:34.047Z,43.71
2019-03-30T01:38:34.516Z,43.60
2019-03-30T01:39:34.985Z,43.52
2019-03-30T01:40:35.463Z,43.45
2019-03-30T01:41:35.917Z,43.35
2019-03-30T01:42:36.388Z,43.28
2019-03-30T01:43:36.854Z,43.21
2019-03-30T01:44:37.324Z,43.16
2019-03-30T01:45:37.789Z,43.07
2019-03-30T01:46:38.260Z,43.00
2019-03-30T01:47:38.728Z,42.94
2019-03-30T01:48:39.196Z,42.89
2019-03-30T01:49:39.664Z,42.84
2019-03-30T01:50:40.137Z,42.83
2019-03-30T01:51:40.601Z,42.75
2019-03-30T01:52:41.071Z,42.72
2019-03-30T01:54:42.008Z,42.70
2019-03-30T01:55:42.477Z,42.65
2019-03-30T01:56:42.944Z,42.62
2019-03-30T01:57:43.413Z,42.62
2019-03-30T01:58:43.880Z,42.58
2019-03-30T01:59:44.351Z,42.55
2019-03-30T02:00:45.161Z,42.52
2019-03-30T02:01:45.294Z,42.49
2019-03-30T02:02:45.760Z,42.48
2019-03-30T02:03:46.229Z,42.49
2019-03-30T02:04:46.695Z,42.45
2019-03-30T02:05:47.170Z,42.49
2019-03-30T02:06:47.637Z,42.45
2019-03-30T02:07:48.105Z,42.45
2019-03-30T02:08:48.579Z,42.43
2019-03-30T02:09:49.048Z,42.47
2019-03-30T02:10:49.537Z,42.42
2019-03-30T02:11:49.986Z,42.42
2019-03-30T02:12:50.455Z,42.40
2019-03-30T02:13:50.925Z,42.42
2019-03-30T02:14:51.546Z,42.45
2019-03-30T02:15:51.866Z,42.42
2019-03-30T02:16:52.334Z,42.40
2019-03-30T02:17:53.010Z,42.43
2019-03-30T02:18:53.275Z,42.42
2019-03-30T02:19:53.747Z,42.42
2019-03-30T02:20:54.215Z,42.42
2019-03-30T02:21:54.686Z,42.42
2019-03-30T02:22:55.154Z,42.45
2019-03-30T02:23:55.626Z,42.47
2019-03-30T02:24:56.103Z,42.43
2019-03-30T02:25:56.566Z,42.47
2019-03-30T02:26:57.039Z,42.44
2019-03-30T02:27:57.509Z,42.43
2019-03-30T02:28:57.980Z,42.46
2019-03-30T02:29:58.448Z,42.45
2019-03-30T02:30:58.923Z,42.46
2019-03-30T02:31:59.391Z,42.47
2019-03-30T02:32:59.862Z,42.44
2019-03-30T02:34:00.487Z,42.45
2019-03-30T02:35:00.803Z,42.48
2019-03-30T02:36:01.277Z,42.49
2019-03-30T02:37:01.755Z,42.49
2019-03-30T02:38:02.216Z,42.49
2019-03-30T02:39:02.691Z,42.53
2019-03-30T02:40:03.167Z,42.49
2019-03-30T02:41:03.631Z,42.50
2019-03-30T02:42:04.106Z,42.53
2019-03-30T02:43:04.573Z,42.52
2019-03-30T02:44:05.043Z,42.54
2019-03-30T02:45:05.696Z,42.55
2019-03-30T02:46:06.002Z,42.57
2019-03-30T02:47:06.457Z,42.60
2019-03-30T02:48:06.930Z,42.59
2019-03-30T02:49:07.399Z,42.61
2019-03-30T02:50:07.877Z,42.62
2019-03-30T02:51:08.342Z,42.63
2019-03-30T02:52:08.812Z,42.60
2019-03-30T02:53:09.299Z,42.61
2019-03-30T02:54:09.755Z,42.63
2019-03-30T02:55:12.608Z,42.62
2019-03-30T02:56:10.714Z,42.67
2019-03-30T02:57:11.167Z,42.63
2019-03-30T02:58:11.642Z,42.64
2019-03-30T02:59:12.119Z,42.66
2019-03-30T03:00:12.583Z,42.68
2019-03-30T03:01:13.053Z,42.71
2019-03-30T03:02:13.527Z,42.71
2019-03-30T03:03:13.998Z,42.69
2019-03-30T03:04:14.570Z,42.68
2019-03-30T03:05:14.940Z,42.67
2019-03-30T03:06:15.412Z,42.67
2019-03-30T03:07:15.885Z,42.68
2019-03-30T03:08:16.363Z,42.67
2019-03-30T03:09:16.830Z,42.68
2019-03-30T03:10:17.299Z,42.68
2019-03-30T03:11:17.770Z,42.75
2019-03-30T03:12:18.242Z,42.71
2019-03-30T03:13:18.712Z,42.71
2019-03-30T03:14:19.184Z,42.71
2019-03-30T03:15:19.656Z,42.73
2019-03-30T03:16:20.475Z,42.74
2019-03-30T03:17:20.599Z,42.74
2019-03-30T03:18:21.071Z,42.74
2019-03-30T03:19:21.541Z,42.74
2019-03-30T03:20:22.014Z,42.74
2019-03-30T03:21:22.487Z,42.75
2019-03-30T03:22:23.041Z,42.75
2019-03-30T03:23:23.425Z,42.73
2019-03-30T03:24:23.904Z,42.74
2019-03-30T03:25:24.375Z,42.78
2019-03-30T03:26:24.843Z,42.74
2019-03-30T03:27:25.312Z,42.80
2019-03-30T03:28:25.790Z,42.77
2019-03-30T03:29:26.458Z,42.73
2019-03-30T03:30:26.793Z,42.75
2019-03-30T03:31:27.590Z,42.75
2019-03-30T03:32:27.736Z,42.75
2019-03-30T03:33:28.144Z,42.77
2019-03-30T03:34:28.625Z,42.77
2019-03-30T03:35:29.087Z,42.78
2019-03-30T03:36:29.560Z,42.76
2019-03-30T03:37:43.405Z,42.78
2019-03-30T03:38:30.502Z,42.76
2019-03-30T03:39:30.975Z,42.74
2019-03-30T03:40:31.445Z,42.78
2019-03-30T03:41:31.917Z,42.78
2019-03-30T03:42:32.389Z,42.75
2019-03-30T03:43:32.869Z,42.75
2019-03-30T03:44:33.335Z,42.76
2019-03-30T03:45:34.056Z,42.76
2019-03-30T03:46:34.276Z,42.75
2019-03-30T03:47:34.748Z,42.81
2019-03-30T03:48:35.219Z,42.77
2019-03-30T03:49:35.692Z,42.75
2019-03-30T03:50:36.171Z,42.75
2019-03-30T03:51:36.645Z,42.79
2019-03-30T03:52:37.138Z,42.77
2019-03-30T03:53:37.582Z,42.79
2019-03-30T03:54:38.052Z,42.76
2019-03-30T03:55:38.522Z,42.79
2019-03-30T03:56:38.995Z,42.78
2019-03-30T03:57:39.466Z,42.78
2019-03-30T03:58:39.936Z,42.79
2019-03-30T03:59:40.410Z,42.81
2019-03-30T04:00:41.086Z,42.81
2019-03-30T04:01:41.354Z,42.84
2019-03-30T04:02:41.826Z,42.81
2019-03-30T04:03:42.297Z,42.79
2019-03-30T04:04:46.908Z,42.75
2019-03-30T04:05:43.245Z,42.76
2019-03-30T04:06:43.710Z,42.77
2019-03-30T04:07:44.185Z,42.78
2019-03-30T04:08:44.654Z,42.80
2019-03-30T04:09:45.128Z,42.79
2019-03-30T04:10:45.600Z,42.85
2019-03-30T04:11:46.071Z,42.87
2019-03-30T04:12:46.542Z,42.80
2019-03-30T04:13:47.035Z,42.77
2019-03-30T04:14:47.485Z,42.78
2019-03-30T04:15:48.007Z,42.82
2019-03-30T04:16:48.435Z,42.82
2019-03-30T04:17:48.901Z,42.85
2019-03-30T04:18:49.374Z,42.81
2019-03-30T04:19:49.845Z,42.82
2019-03-30T04:20:50.322Z,42.82
2019-03-30T04:21:50.798Z,42.77
2019-03-30T04:22:51.262Z,42.78
2019-03-30T04:23:54.242Z,42.76
2019-03-30T04:24:52.205Z,42.75
2019-03-30T04:25:52.674Z,42.73
2019-03-30T04:26:53.147Z,42.74
2019-03-30T04:27:53.622Z,42.73
2019-03-30T04:28:54.091Z,42.76
2019-03-30T04:29:54.567Z,42.75
2019-03-30T04:30:55.096Z,42.76
2019-03-30T04:31:55.509Z,42.78
2019-03-30T04:32:55.984Z,42.74
2019-03-30T04:33:56.451Z,42.77
2019-03-30T04:34:56.924Z,42.76
2019-03-30T04:35:57.398Z,42.78
2019-03-30T04:36:57.869Z,42.80
2019-03-30T04:37:58.338Z,42.77
2019-03-30T04:38:58.908Z,42.79
2019-03-30T04:39:59.286Z,42.78
2019-03-30T04:40:59.758Z,42.78
2019-03-30T04:42:00.228Z,42.77
2019-03-30T04:43:00.706Z,42.78
2019-03-30T04:44:01.177Z,42.76
2019-03-30T04:45:01.646Z,42.78
2019-03-30T04:46:02.319Z,42.76
2019-03-30T04:47:02.591Z,42.75
2019-03-30T04:48:03.194Z,42.77
2019-03-30T04:49:03.536Z,42.76
2019-03-30T04:50:04.005Z,42.75
2019-03-30T04:51:04.478Z,42.77
2019-03-30T04:52:04.950Z,42.74
2019-03-30T04:53:05.424Z,42.76
2019-03-30T04:54:05.891Z,42.76
2019-03-30T04:55:06.365Z,42.76
2019-03-30T04:56:06.838Z,42.78
2019-03-30T04:57:07.312Z,42.80
2019-03-30T04:58:09.439Z,42.78
2019-03-30T04:59:08.255Z,42.76
2019-03-30T05:00:08.727Z,42.77
2019-03-30T05:01:09.199Z,42.79
2019-03-30T05:02:09.669Z,42.79
2019-03-30T05:03:10.143Z,42.83
2019-03-30T05:04:10.615Z,42.83
2019-03-30T05:05:11.088Z,42.80
2019-03-30T05:06:11.558Z,42.78
2019-03-30T05:07:12.034Z,42.81
2019-03-30T05:08:12.501Z,42.78
2019-03-30T05:09:12.976Z,42.79
2019-03-30T05:10:13.453Z,42.81
2019-03-30T05:11:13.919Z,42.81
2019-03-30T05:12:14.391Z,42.81
2019-03-30T05:13:14.870Z,42.82
2019-03-30T05:14:15.336Z,42.83
2019-03-30T05:15:15.808Z,42.81
2019-03-30T05:16:16.332Z,42.80
2019-03-30T05:17:16.751Z,42.81
2019-03-30T05:18:17.224Z,42.82
2019-03-30T05:19:17.696Z,42.83
2019-03-30T05:20:18.168Z,42.83
2019-03-30T05:21:18.643Z,42.81
2019-03-30T05:22:19.111Z,42.82
2019-03-30T05:23:19.587Z,42.76
2019-03-30T05:24:20.058Z,42.79
2019-03-30T05:25:20.530Z,42.83
2019-03-30T05:26:21.004Z,42.79
2019-03-30T05:27:21.474Z,42.77
2019-03-30T05:28:21.946Z,42.79
2019-03-30T05:29:22.420Z,42.79
2019-03-30T05:30:22.892Z,42.81
2019-03-30T05:31:23.361Z,42.79
2019-03-30T05:32:23.836Z,42.81
2019-03-30T05:33:24.310Z,42.82
2019-03-30T05:34:24.780Z,42.84
2019-03-30T05:35:25.252Z,42.78
2019-03-30T05:36:25.724Z,42.79
2019-03-30T05:37:26.197Z,42.78
2019-03-30T05:38:26.670Z,42.80
2019-03-30T05:39:27.177Z,42.83
2019-03-30T05:40:27.621Z,42.83
2019-03-30T05:41:28.095Z,42.82
2019-03-30T05:42:28.557Z,42.81
2019-03-30T05:43:29.028Z,42.89
2019-03-30T05:44:29.502Z,42.98
2019-03-30T05:45:29.977Z,43.09
2019-03-30T05:46:30.447Z,43.20
2019-03-30T05:47:30.936Z,43.23
2019-03-30T05:48:31.390Z,43.32
2019-03-30T05:49:31.861Z,43.41
2019-03-30T05:50:32.338Z,43.50
2019-03-30T05:51:32.844Z,43.52
2019-03-30T05:52:35.639Z,43.60
2019-03-30T05:53:33.756Z,43.69
2019-03-30T05:54:34.218Z,43.81
2019-03-30T05:55:34.691Z,43.94
2019-03-30T05:56:35.161Z,44.08
2019-03-30T05:57:35.631Z,44.14
2019-03-30T05:58:36.100Z,44.22
2019-03-30T05:59:36.571Z,44.33
2019-03-30T06:00:37.044Z,44.41
2019-03-30T06:01:37.511Z,44.47
2019-03-30T06:02:37.986Z,44.54
2019-03-30T06:03:38.451Z,44.58
2019-03-30T06:04:38.922Z,44.62
2019-03-30T06:05:39.388Z,44.64
2019-03-30T06:06:39.858Z,44.67
2019-03-30T06:07:40.325Z,44.72
2019-03-30T06:08:40.797Z,44.71
2019-03-30T06:09:41.263Z,44.75
2019-03-30T06:10:41.731Z,44.73
2019-03-30T06:11:42.201Z,44.69
2019-03-30T06:12:42.668Z,44.67
2019-03-30T06:13:43.135Z,44.61
2019-03-30T06:14:43.599Z,44.48
2019-03-30T06:15:44.069Z,44.32
2019-03-30T06:16:44.538Z,44.15
2019-03-30T06:17:45.009Z,44.04
2019-03-30T06:18:45.474Z,43.92
2019-03-30T06:19:46.017Z,43.82
2019-03-30T06:20:46.424Z,43.71
2019-03-30T06:21:46.884Z,43.61
2019-03-30T06:22:47.347Z,43.51
2019-03-30T06:23:48.772Z,43.41
2019-03-30T06:24:48.287Z,43.35
2019-03-30T06:25:48.757Z,43.24
2019-03-30T06:26:49.216Z,43.20
2019-03-30T06:27:49.689Z,43.16
2019-03-30T06:28:50.151Z,43.04
2019-03-30T06:29:50.620Z,42.99
2019-03-30T06:30:51.088Z,42.93
2019-03-30T06:31:51.557Z,42.93
2019-03-30T06:32:52.027Z,42.81
2019-03-30T06:33:52.496Z,42.81
2019-03-30T06:34:52.961Z,42.74
2019-03-30T06:35:53.429Z,42.73
2019-03-30T06:36:53.899Z,42.70
2019-03-30T06:37:54.369Z,42.65
2019-03-30T06:38:54.837Z,42.65
2019-03-30T06:39:55.305Z,42.62
2019-03-30T06:40:55.773Z,42.58
2019-03-30T06:41:56.247Z,42.54
2019-03-30T06:42:56.713Z,42.52
2019-03-30T06:43:57.180Z,42.49
2019-03-30T06:44:57.650Z,42.52
2019-03-30T06:45:58.119Z,42.52
2019-03-30T06:46:58.586Z,42.47
2019-03-30T06:47:59.057Z,42.48
2019-03-30T06:48:59.526Z,42.45
2019-03-30T06:49:59.995Z,42.48
2019-03-30T06:51:00.465Z,42.45
2019-03-30T06:52:00.934Z,42.43
2019-03-30T06:53:01.405Z,42.41
2019-03-30T06:54:01.877Z,42.40
2019-03-30T06:55:02.347Z,42.40
2019-03-30T06:56:02.815Z,42.41
2019-03-30T06:57:03.284Z,42.38
2019-03-30T06:58:03.753Z,42.39
2019-03-30T06:59:04.222Z,42.40
2019-03-30T07:00:04.692Z,42.43
2019-03-30T07:01:05.164Z,42.39
2019-03-30T07:02:05.632Z,42.39
2019-03-30T07:03:06.101Z,42.41
2019-03-30T07:04:06.572Z,42.38
2019-03-30T07:05:07.042Z,42.36
2019-03-30T07:06:07.513Z,42.32
2019-03-30T07:07:07.984Z,42.32
2019-03-30T07:08:08.453Z,42.35
2019-03-30T07:09:08.924Z,42.35
2019-03-30T07:10:09.396Z,42.33
2019-03-30T07:11:20.660Z,42.36
2019-03-30T07:12:10.340Z,42.35
2019-03-30T07:13:10.805Z,42.37
2019-03-30T07:14:11.276Z,42.38
2019-03-30T07:15:11.745Z,42.37
2019-03-30T07:16:12.216Z,42.40
2019-03-30T07:17:12.693Z,42.42
2019-03-30T07:18:13.158Z,42.41
2019-03-30T07:19:13.629Z,42.39
2019-03-30T07:20:14.100Z,42.39
2019-03-30T07:21:14.571Z,42.40
2019-03-30T07:22:15.041Z,42.39
2019-03-30T07:23:15.515Z,42.38
2019-03-30T07:24:15.982Z,42.41
2019-03-30T07:25:16.458Z,42.41
2019-03-30T07:26:16.924Z,42.41
2019-03-30T07:27:17.398Z,42.40
2019-03-30T07:28:17.870Z,42.44
2019-03-30T07:29:18.338Z,42.41
2019-03-30T07:30:18.809Z,42.43
2019-03-30T07:31:19.281Z,42.43
2019-03-30T07:32:19.753Z,42.42
2019-03-30T07:33:20.220Z,42.41
2019-03-30T07:34:20.692Z,42.41
2019-03-30T07:35:21.163Z,42.39
2019-03-30T07:36:21.635Z,42.40
2019-03-30T07:37:22.104Z,42.42
2019-03-30T07:38:22.579Z,42.42
2019-03-30T07:39:23.049Z,42.46
2019-03-30T07:40:23.521Z,42.46
2019-03-30T07:41:23.991Z,42.43
2019-03-30T07:43:24.933Z,42.44
2019-03-30T07:44:25.405Z,42.42
2019-03-30T07:45:25.876Z,42.43
2019-03-30T07:46:26.347Z,42.40
2019-03-30T07:47:26.830Z,42.42
2019-03-30T07:48:27.330Z,42.43
2019-03-30T07:49:27.762Z,42.43
2019-03-30T07:50:28.238Z,42.41
2019-03-30T07:51:28.704Z,42.39
2019-03-30T07:53:43.539Z,42.42
2019-03-30T07:54:30.122Z,42.41
2019-03-30T07:55:30.590Z,42.43
2019-03-30T07:56:31.063Z,42.47
2019-03-30T07:58:32.008Z,42.45
2019-03-30T07:59:32.484Z,42.48
2019-03-30T08:00:32.951Z,42.46
2019-03-30T08:01:33.420Z,42.48
2019-03-30T08:02:33.894Z,42.46
2019-03-30T08:03:34.364Z,42.48
2019-03-30T08:04:34.838Z,42.48
2019-03-30T08:06:35.783Z,42.51
2019-03-30T08:07:36.258Z,42.51
2019-03-30T08:08:36.724Z,42.53
2019-03-30T08:09:37.376Z,42.56
2019-03-30T08:10:37.672Z,42.60
2019-03-30T08:11:38.138Z,42.60
2019-03-30T08:12:38.615Z,42.61
2019-03-30T08:13:39.084Z,42.60
2019-03-30T08:14:39.553Z,42.63
2019-03-30T08:16:40.503Z,42.62
2019-03-30T08:18:41.443Z,42.65
2019-03-30T08:19:41.913Z,42.61
2019-03-30T08:20:42.385Z,42.67
2019-03-30T08:21:42.858Z,42.60
2019-03-30T08:22:43.374Z,42.64
2019-03-30T08:23:44.007Z,42.72
2019-03-30T08:24:44.278Z,42.69
2019-03-30T08:25:44.748Z,42.67
2019-03-30T08:26:45.221Z,42.70
2019-03-30T08:27:45.689Z,42.73
2019-03-30T08:28:46.164Z,42.66
2019-03-30T08:29:46.635Z,42.62
2019-03-30T08:30:47.109Z,42.66
2019-03-30T08:31:50.001Z,42.64
2019-03-30T08:32:48.053Z,42.64
2019-03-30T08:33:48.521Z,42.65
2019-03-30T08:34:49.001Z,42.68
2019-03-30T08:35:49.807Z,42.68
2019-03-30T08:36:49.938Z,42.68
2019-03-30T08:37:50.410Z,42.68
2019-03-30T08:38:50.887Z,42.67
2019-03-30T08:39:51.356Z,42.66
2019-03-30T08:40:51.824Z,42.64
2019-03-30T08:41:52.301Z,42.62
2019-03-30T08:42:52.769Z,42.59
2019-03-30T08:43:53.244Z,42.63
2019-03-30T08:44:53.713Z,42.60
2019-03-30T08:45:54.187Z,42.58
2019-03-30T08:46:54.661Z,42.61
2019-03-30T08:47:55.134Z,42.61
2019-03-30T08:48:55.601Z,42.59
2019-03-30T08:49:56.074Z,42.62
2019-03-30T08:50:56.749Z,42.58
2019-03-30T08:51:57.019Z,42.58
2019-03-30T08:52:57.488Z,42.53
2019-03-30T08:53:57.963Z,42.57
2019-03-30T08:54:58.640Z,42.55
2019-03-30T08:55:58.909Z,42.54
2019-03-30T08:56:59.384Z,42.52
2019-03-30T08:57:59.851Z,42.52
2019-03-30T08:59:00.326Z,42.54
2019-03-30T09:00:00.794Z,42.50
2019-03-30T09:01:01.283Z,42.52
2019-03-30T09:02:01.942Z,42.54
2019-03-30T09:03:02.213Z,42.53
2019-03-30T09:04:02.684Z,42.61
2019-03-30T09:05:03.157Z,42.72
2019-03-30T09:06:03.629Z,42.81
2019-03-30T09:07:04.103Z,42.84
2019-03-30T09:08:04.571Z,42.94
2019-03-30T09:09:05.045Z,43.05
2019-03-30T09:10:05.564Z,43.10
2019-03-30T09:11:05.987Z,43.15
2019-03-30T09:12:06.457Z,43.25
2019-03-30T09:15:07.871Z,43.55
2019-03-30T09:16:08.341Z,43.69
2019-03-30T09:17:08.810Z,43.72
2019-03-30T09:18:09.281Z,43.80
2019-03-30T09:19:09.753Z,43.90
2019-03-30T09:20:10.223Z,43.99
2019-03-30T09:21:10.695Z,44.06
2019-03-30T09:22:11.160Z,44.14
2019-03-30T09:23:11.632Z,44.17
2019-03-30T09:24:12.301Z,44.24
2019-03-30T09:25:12.769Z,44.25
2019-03-30T09:26:16.400Z,44.29
2019-03-30T09:27:13.504Z,44.36
2019-03-30T09:28:13.972Z,44.37
2019-03-30T09:29:14.440Z,44.34
2019-03-30T09:30:14.910Z,44.30
2019-03-30T09:31:15.378Z,44.22
2019-03-30T09:32:15.845Z,44.13
2019-03-30T09:33:16.315Z,44.09
2019-03-30T09:34:17.186Z,43.91
2019-03-30T09:35:17.248Z,43.81
2019-03-30T09:36:17.721Z,43.67
2019-03-30T09:38:18.675Z,43.49
2019-03-30T09:39:19.121Z,43.41
2019-03-30T09:40:19.588Z,43.32
2019-03-30T09:41:20.056Z,43.23
2019-03-30T09:42:20.526Z,43.15
2019-03-30T09:44:21.460Z,43.04
2019-03-30T09:45:22.129Z,42.94
2019-03-30T09:46:22.395Z,42.84
2019-03-30T09:47:22.866Z,42.79
2019-03-30T09:48:23.333Z,42.74
2019-03-30T09:49:23.802Z,42.70
2019-03-30T09:50:24.268Z,42.67
2019-03-30T09:51:24.739Z,42.58
2019-03-30T09:52:25.206Z,42.53
2019-03-30T09:53:25.676Z,42.53
2019-03-30T09:54:26.144Z,42.44
2019-03-30T09:55:27.356Z,42.43
2019-03-30T09:56:27.105Z,42.40
2019-03-30T09:57:27.573Z,42.39
2019-03-30T09:59:28.489Z,42.32
2019-03-30T10:00:29.038Z,42.34
2019-03-30T10:01:29.627Z,42.30
2019-03-30T10:02:29.896Z,42.27
2019-03-30T10:03:31.566Z,42.24
2019-03-30T10:04:31.178Z,42.17
2019-03-30T10:05:31.510Z,42.18
2019-03-30T10:06:34.618Z,42.15
2019-03-30T10:07:32.243Z,42.13
2019-03-30T10:08:32.914Z,42.19
2019-03-30T10:09:33.383Z,42.14
2019-03-30T10:10:33.855Z,42.12
2019-03-30T10:11:34.120Z,42.14
2019-03-30T10:12:34.590Z,42.13
2019-03-30T10:13:35.060Z,42.15
2019-03-30T10:14:35.531Z,42.16
2019-03-30T10:15:36.001Z,42.12
2019-03-30T10:16:36.469Z,42.18
2019-03-30T10:17:36.942Z,42.18
2019-03-30T10:18:37.690Z,42.13
2019-03-30T10:19:37.888Z,42.15
2019-03-30T10:20:38.351Z,42.15
2019-03-30T10:21:38.823Z,42.15
2019-03-30T10:22:42.034Z,42.15
2019-03-30T10:23:39.761Z,42.16
2019-03-30T10:24:40.237Z,42.18
2019-03-30T10:25:40.702Z,42.19
2019-03-30T10:26:41.382Z,42.15
2019-03-30T10:28:42.317Z,42.22
2019-03-30T10:29:42.787Z,42.20
2019-03-30T10:30:43.055Z,42.18
2019-03-30T10:31:43.527Z,42.18
2019-03-30T10:32:44.199Z,42.20
2019-03-30T10:33:44.468Z,42.20
2019-03-30T10:34:44.942Z,42.22
2019-03-30T10:35:45.409Z,42.23
2019-03-30T10:36:45.879Z,42.24
2019-03-30T10:37:46.349Z,42.25
2019-03-30T10:38:47.166Z,42.26
2019-03-30T10:39:47.342Z,42.25
2019-03-30T10:40:47.965Z,42.26
2019-03-30T10:41:48.234Z,42.28
2019-03-30T10:42:48.706Z,42.32
2019-03-30T10:43:49.857Z,42.30
2019-03-30T10:44:49.646Z,42.32
2019-03-30T10:45:50.118Z,42.31
2019-03-30T10:47:51.263Z,42.31
2019-03-30T10:48:51.532Z,42.32
2019-03-30T10:49:52.230Z,42.31
2019-03-30T10:50:52.877Z,42.32
2019-03-30T10:51:54.332Z,42.37
2019-03-30T10:52:53.700Z,42.35
2019-03-30T10:54:54.561Z,42.33
2019-03-30T10:57:58.435Z,42.35
2019-03-30T10:59:56.918Z,42.34
2019-03-30T11:00:57.942Z,42.34
2019-03-30T11:01:58.337Z,42.31
2019-03-30T11:03:59.008Z,42.32
2019-03-30T11:04:59.072Z,42.33
2019-03-30T11:05:59.542Z,42.34
2019-03-30T11:07:00.665Z,42.35
2019-03-30T11:08:00.766Z,42.34
2019-03-30T11:10:03.529Z,42.34
2019-03-30T11:11:02.104Z,42.36
2019-03-30T11:12:04.062Z,42.43
2019-03-30T11:13:03.529Z,42.40
2019-03-30T11:16:08.104Z,42.44
2019-03-30T11:21:06.821Z,42.43
2019-03-30T11:24:08.779Z,42.47
2019-03-30T11:26:13.095Z,42.47
2019-03-30T11:28:13.778Z,42.50
2019-03-30T11:37:45.874Z,42.56
2019-03-30T11:42:52.396Z,42.54
2019-03-30T11:44:46.258Z,42.53
2019-03-30T11:50:49.698Z,42.54
2019-03-30T11:55:57.843Z,42.60
2019-03-30T12:00:53.532Z,42.56
2019-03-30T12:01:59.257Z,42.61
2019-03-30T12:02:55.220Z,42.61
2019-03-30T12:04:59.547Z,42.60
2019-03-30T12:14:01.866Z,42.64
2019-03-30T12:19:03.358Z,42.66
2019-03-30T12:28:08.235Z,42.69
2019-03-30T12:29:07.765Z,42.67
2019-03-30T12:30:07.427Z,42.67
2019-03-30T12:31:08.102Z,42.69
2019-03-30T12:32:09.052Z,42.70
2019-03-30T12:33:09.502Z,42.70
2019-03-30T12:34:13.099Z,42.69
2019-03-30T12:41:13.563Z,42.69
2019-03-30T12:43:13.677Z,42.72
2019-03-30T12:44:14.241Z,42.68
2019-03-30T12:45:15.384Z,42.71
2019-03-30T12:46:15.383Z,42.67
2019-03-30T12:50:18.408Z,42.68
2019-03-30T12:54:19.098Z,43.05
2019-03-30T12:55:19.373Z,43.10
2019-03-30T12:56:19.620Z,43.19
2019-03-30T13:00:22.604Z,43.45
2019-03-30T13:01:23.616Z,43.55
2019-03-30T13:02:22.805Z,43.67
2019-03-30T13:03:23.138Z,43.76
2019-03-30T13:05:24.944Z,43.92
2019-03-30T13:08:26.496Z,44.17
2019-03-30T13:09:26.822Z,44.24
2019-03-30T13:13:28.307Z,44.42
2019-03-30T13:19:32.663Z,44.48
2019-03-30T13:21:33.182Z,44.37
2019-03-30T13:23:32.922Z,44.16
2019-03-30T13:25:35.070Z,43.86
2019-03-30T13:29:36.413Z,43.45
2019-03-30T13:31:39.298Z,43.29
2019-03-30T13:32:36.858Z,43.17
2019-03-30T13:34:39.085Z,43.08
2019-03-30T13:36:46.429Z,42.94
2019-03-30T13:39:40.563Z,42.81
2019-03-30T13:44:42.417Z,42.61
2019-03-30T13:45:43.364Z,42.58
2019-03-30T13:54:47.901Z,42.40
2019-03-30T13:55:48.190Z,42.39
2019-03-30T13:59:50.076Z,42.33
2019-03-30T14:02:50.664Z,42.26
2019-03-30T14:10:54.815Z,42.29
2019-03-30T14:18:15.229Z,42.30
2019-03-30T14:20:27.581Z,42.35
2019-03-30T14:23:02.693Z,42.36
2019-03-30T17:48:31.126Z,42.54
2019-03-30T17:51:44.491Z,42.55
2019-03-30T17:53:44.562Z,42.52
2019-03-30T18:07:40.353Z,42.62
2019-03-30T18:08:40.406Z,42.63
2019-03-30T18:11:44.108Z,42.63
2019-03-30T18:14:43.581Z,42.67
2019-03-30T18:15:45.260Z,42.72
2019-03-30T18:17:44.994Z,42.97
2019-03-30T18:18:49.964Z,43.08
2019-03-30T18:20:46.671Z,43.25
2019-03-30T18:21:49.908Z,43.35
2019-03-30T18:22:48.208Z,43.42
2019-03-30T18:26:49.026Z,43.78
2019-03-30T18:27:49.296Z,43.87
2019-03-30T18:28:49.766Z,43.97
2019-03-30T18:29:50.161Z,44.06
2019-03-30T18:30:50.906Z,44.17
2019-03-30T18:31:51.579Z,44.25
2019-03-30T18:32:53.380Z,44.34
2019-03-30T18:34:52.581Z,44.44
2019-03-30T18:35:52.848Z,44.50
2019-03-30T18:37:53.785Z,44.61
2019-03-30T18:39:08.460Z,44.64
2019-03-30T18:39:54.774Z,44.62
2019-03-30T18:40:55.190Z,44.60
2019-03-30T18:41:55.862Z,44.53
2019-03-30T18:42:56.328Z,44.54
2019-03-30T18:44:57.266Z,44.32
2019-03-30T18:47:58.670Z,43.95
2019-03-30T18:48:58.933Z,43.86
2019-03-30T18:49:59.707Z,43.77
2019-03-30T18:52:00.342Z,43.64
2019-03-30T18:53:00.808Z,43.53
2019-03-30T18:54:01.279Z,43.47
2019-03-30T18:55:01.743Z,43.40
2019-03-30T18:56:02.213Z,43.30
2019-03-30T18:57:02.682Z,43.26
2019-03-30T18:58:03.151Z,43.23
2019-03-30T18:59:03.617Z,43.18
2019-03-30T19:00:04.085Z,43.09
2019-03-30T19:01:04.613Z,43.08
2019-03-30T19:02:05.225Z,42.99
2019-03-30T19:03:05.490Z,42.93
2019-03-30T19:04:05.977Z,42.90
2019-03-30T19:05:06.429Z,42.88
2019-03-30T19:06:06.901Z,42.85
2019-03-30T19:07:07.367Z,42.79
2019-03-30T19:08:07.887Z,42.79
2019-03-30T19:09:08.312Z,42.77
2019-03-30T19:10:09.081Z,42.72
2019-03-30T19:11:09.244Z,42.73
2019-03-30T19:12:09.715Z,42.74
2019-03-30T19:13:10.183Z,42.70
2019-03-30T19:14:10.656Z,42.71
2019-03-30T19:15:11.121Z,42.67
2019-03-30T19:16:11.592Z,42.67
2019-03-30T19:17:12.064Z,42.64
2019-03-30T19:18:12.533Z,42.64
2019-03-30T19:19:13.207Z,42.67
2019-03-30T19:20:13.813Z,42.65
2019-03-30T19:21:13.941Z,42.66
2019-03-30T19:22:14.411Z,42.69
2019-03-30T19:23:14.882Z,42.67
2019-03-30T19:24:15.352Z,42.67
2019-03-30T19:25:15.824Z,42.65